createdAt,value
2019-01-09T00:00:35.497Z,7.19
2019-01-09T00:01:36.068Z,7.37
2019-01-09T00:02:36.655Z,7.27
2019-01-09T00:03:37.235Z,7.34
2019-01-09T00:04:37.820Z,7.31
2019-01-09T00:05:38.405Z,7.26
2019-01-09T00:06:39.015Z,7.37
2019-01-09T00:07:39.594Z,7.35
2019-01-09T00:08:40.258Z,7.27
2019-01-09T00:09:40.835Z,7.29
2019-01-09T00:10:41.498Z,7.24
2019-01-09T00:11:42.079Z,7.34
2019-01-09T00:12:42.667Z,7.35
2019-01-09T00:13:43.361Z,7.40
2019-01-09T00:14:43.945Z,7.34
2019-01-09T00:15:44.522Z,7.42
2019-01-09T00:16:45.124Z,7.47
2019-01-09T00:17:45.706Z,7.41
2019-01-09T00:18:46.295Z,7.34
2019-01-09T00:19:46.986Z,7.40
2019-01-09T00:20:47.576Z,7.44
2019-01-09T00:21:48.157Z,7.50
2019-01-09T00:22:48.957Z,7.47
2019-01-09T00:23:49.366Z,7.44
2019-01-09T00:24:49.954Z,7.45
2019-01-09T00:25:50.540Z,7.41
2019-01-09T00:26:51.136Z,7.41
2019-01-09T00:27:51.723Z,7.45
2019-01-09T00:28:52.378Z,7.42
2019-01-09T00:29:52.959Z,7.41
2019-01-09T00:30:53.546Z,7.34
2019-01-09T00:31:54.131Z,7.31
2019-01-09T00:32:55.785Z,7.35
2019-01-09T00:33:56.365Z,7.41
2019-01-09T00:34:57.029Z,7.41
2019-01-09T00:35:57.618Z,7.38
2019-01-09T00:36:58.271Z,7.41
2019-01-09T00:37:58.859Z,7.49
2019-01-09T00:39:00.537Z,7.49
2019-01-09T00:40:01.116Z,7.41
2019-01-09T00:41:01.780Z,7.47
2019-01-09T00:42:02.357Z,7.38
2019-01-09T00:43:02.945Z,7.38
2019-01-09T00:44:03.530Z,7.31
2019-01-09T00:45:04.109Z,7.32
2019-01-09T00:46:04.696Z,7.24
2019-01-09T00:47:05.278Z,7.26
2019-01-09T00:48:05.873Z,7.26
2019-01-09T00:49:06.530Z,7.34
2019-01-09T00:50:07.064Z,7.26
2019-01-09T00:51:07.651Z,7.20
2019-01-09T00:52:09.327Z,7.13
2019-01-09T00:53:09.911Z,7.19
2019-01-09T00:54:10.572Z,7.23
2019-01-09T00:55:11.151Z,7.24
2019-01-09T00:56:11.817Z,7.27
2019-01-09T00:57:12.400Z,7.26
2019-01-09T00:58:13.056Z,7.40
2019-01-09T00:59:13.638Z,7.34
2019-01-09T01:00:14.375Z,7.41
2019-01-09T01:01:14.898Z,7.41
2019-01-09T01:02:15.468Z,7.34
2019-01-09T01:03:16.053Z,7.32
2019-01-09T01:04:16.638Z,7.35
2019-01-09T01:05:17.226Z,7.31
2019-01-09T01:06:17.808Z,7.35
2019-01-09T01:07:18.381Z,7.29
2019-01-09T01:08:18.967Z,7.31
2019-01-09T01:09:19.585Z,7.38
2019-01-09T01:10:20.173Z,7.37
2019-01-09T01:11:20.832Z,7.29
2019-01-09T01:12:21.416Z,7.31
2019-01-09T01:13:22.005Z,7.38
2019-01-09T01:14:22.578Z,7.44
2019-01-09T01:15:23.218Z,7.40
2019-01-09T01:16:23.798Z,7.38
2019-01-09T01:17:24.387Z,7.34
2019-01-09T01:18:25.075Z,7.29
2019-01-09T01:19:25.660Z,7.34
2019-01-09T01:20:27.343Z,7.31
2019-01-09T01:21:27.933Z,7.23
2019-01-09T01:22:28.586Z,7.17
2019-01-09T01:23:29.170Z,7.22
2019-01-09T01:24:29.753Z,7.16
2019-01-09T01:25:30.334Z,7.23
2019-01-09T01:26:30.921Z,7.20
2019-01-09T01:27:31.499Z,7.26
2019-01-09T01:28:32.082Z,7.17
2019-01-09T01:29:32.669Z,7.31
2019-01-09T01:30:33.252Z,7.19
2019-01-09T01:31:33.869Z,7.23
2019-01-09T01:32:34.546Z,7.17
2019-01-09T01:33:35.129Z,7.16
2019-01-09T01:34:35.795Z,7.22
2019-01-09T01:35:36.374Z,7.15
2019-01-09T01:36:37.033Z,7.15
2019-01-09T01:37:37.615Z,7.19
2019-01-09T01:38:38.331Z,7.15
2019-01-09T01:39:38.858Z,7.23
2019-01-09T01:40:39.515Z,7.16
2019-01-09T01:41:40.109Z,7.34
2019-01-09T01:42:40.759Z,7.17
2019-01-09T01:43:41.344Z,7.17
2019-01-09T01:44:43.024Z,7.16
2019-01-09T01:45:43.609Z,7.19
2019-01-09T01:46:44.271Z,7.22
2019-01-09T01:47:44.850Z,7.17
2019-01-09T01:48:45.520Z,7.17
2019-01-09T01:49:46.106Z,7.20
2019-01-09T01:50:46.754Z,7.17
2019-01-09T01:51:47.341Z,7.20
2019-01-09T01:52:48.001Z,7.23
2019-01-09T01:53:48.584Z,7.19
2019-01-09T01:54:49.248Z,7.22
2019-01-09T01:55:49.829Z,7.26
2019-01-09T01:56:50.487Z,7.29
2019-01-09T01:57:51.070Z,7.29
2019-01-09T01:58:52.761Z,7.23
2019-01-09T01:59:53.338Z,7.37
2019-01-09T02:00:53.995Z,7.31
2019-01-09T02:01:54.582Z,7.38
2019-01-09T02:02:56.260Z,7.31
2019-01-09T02:03:56.843Z,7.32
2019-01-09T02:04:57.503Z,7.34
2019-01-09T02:06:03.691Z,7.34
2019-01-09T02:06:58.702Z,7.35
2019-01-09T02:07:59.283Z,7.22
2019-01-09T02:08:59.949Z,7.17
2019-01-09T02:10:00.526Z,7.16
2019-01-09T02:11:03.134Z,7.16
2019-01-09T02:12:03.719Z,6.94
2019-01-09T02:13:05.347Z,6.98
2019-01-09T02:14:05.930Z,6.87
2019-01-09T02:15:06.595Z,6.94
2019-01-09T02:16:07.173Z,6.94
2019-01-09T02:17:07.839Z,6.99
2019-01-09T02:18:08.417Z,6.79
2019-01-09T02:19:09.081Z,6.91
2019-01-09T02:20:09.661Z,6.79
2019-01-09T02:21:10.321Z,6.84
2019-01-09T02:22:10.904Z,6.87
2019-01-09T02:23:11.567Z,6.81
2019-01-09T02:24:12.146Z,6.77
2019-01-09T02:25:12.805Z,6.73
2019-01-09T02:26:13.393Z,6.76
2019-01-09T02:27:14.054Z,6.71
2019-01-09T02:28:14.632Z,6.71
2019-01-09T02:29:15.296Z,6.77
2019-01-09T02:30:15.875Z,6.76
2019-01-09T02:31:16.531Z,6.69
2019-01-09T02:32:17.108Z,6.80
2019-01-09T02:33:17.742Z,6.77
2019-01-09T02:34:18.329Z,6.73
2019-01-09T02:35:18.980Z,6.69
2019-01-09T02:36:19.565Z,6.66
2019-01-09T02:37:21.260Z,6.71
2019-01-09T02:38:21.835Z,6.66
2019-01-09T02:39:22.498Z,6.68
2019-01-09T02:40:23.080Z,6.66
2019-01-09T02:41:23.732Z,6.66
2019-01-09T02:42:24.315Z,6.61
2019-01-09T02:43:26.003Z,6.56
2019-01-09T02:44:32.172Z,6.61
2019-01-09T02:45:27.247Z,6.62
2019-01-09T02:46:27.826Z,6.66
2019-01-09T02:47:28.486Z,6.62
2019-01-09T02:48:29.070Z,6.65
2019-01-09T02:49:29.727Z,6.66
2019-01-09T02:50:30.315Z,6.61
2019-01-09T02:51:30.973Z,6.66
2019-01-09T02:52:31.553Z,6.63
2019-01-09T02:53:32.216Z,6.62
2019-01-09T02:54:32.804Z,6.65
2019-01-09T02:55:34.481Z,6.59
2019-01-09T02:56:35.064Z,6.59
2019-01-09T02:57:35.723Z,6.72
2019-01-09T02:58:36.305Z,6.72
2019-01-09T02:59:36.969Z,6.79
2019-01-09T03:00:37.553Z,6.77
2019-01-09T03:01:38.210Z,6.69
2019-01-09T03:02:38.798Z,6.76
2019-01-09T03:03:39.452Z,6.73
2019-01-09T03:04:40.042Z,6.77
2019-01-09T03:05:40.698Z,6.77
2019-01-09T03:06:41.286Z,6.79
2019-01-09T03:07:41.937Z,6.83
2019-01-09T03:08:42.528Z,6.80
2019-01-09T03:09:43.190Z,6.90
2019-01-09T03:10:44.082Z,6.91
2019-01-09T03:11:45.860Z,6.97
2019-01-09T03:12:46.441Z,6.84
2019-01-09T03:13:47.098Z,6.80
2019-01-09T03:14:47.690Z,6.77
2019-01-09T03:15:48.346Z,6.72
2019-01-09T03:16:48.927Z,6.72
2019-01-09T03:17:49.514Z,6.71
2019-01-09T03:18:50.094Z,6.66
2019-01-09T03:19:50.729Z,6.65
2019-01-09T03:20:51.337Z,6.54
2019-01-09T03:21:51.967Z,6.56
2019-01-09T03:22:52.485Z,6.51
2019-01-09T03:23:53.058Z,6.59
2019-01-09T03:24:53.642Z,6.62
2019-01-09T03:25:54.295Z,6.51
2019-01-09T03:26:54.879Z,6.50
2019-01-09T03:27:55.463Z,6.54
2019-01-09T03:28:56.043Z,6.51
2019-01-09T03:29:56.621Z,6.59
2019-01-09T03:30:57.211Z,6.53
2019-01-09T03:31:57.785Z,6.50
2019-01-09T03:32:58.369Z,6.54
2019-01-09T03:33:58.945Z,6.41
2019-01-09T03:34:59.531Z,6.41
2019-01-09T03:36:00.111Z,6.44
2019-01-09T03:37:00.696Z,6.46
2019-01-09T03:38:01.278Z,6.43
2019-01-09T03:39:01.861Z,6.35
2019-01-09T03:40:02.448Z,6.33
2019-01-09T03:41:03.032Z,6.28
2019-01-09T03:42:03.610Z,6.26
2019-01-09T03:43:04.194Z,6.25
2019-01-09T03:44:04.773Z,6.36
2019-01-09T03:45:05.360Z,6.38
2019-01-09T03:46:05.942Z,6.36
2019-01-09T03:47:06.524Z,6.28
2019-01-09T03:48:07.108Z,6.40
2019-01-09T03:49:07.688Z,6.35
2019-01-09T03:50:08.271Z,6.41
2019-01-09T03:51:08.862Z,6.38
2019-01-09T03:52:09.446Z,6.50
2019-01-09T03:53:10.120Z,6.41
2019-01-09T03:54:10.695Z,6.40
2019-01-09T03:55:11.280Z,6.53
2019-01-09T03:56:11.876Z,6.59
2019-01-09T03:57:12.455Z,6.50
2019-01-09T03:58:13.041Z,6.53
2019-01-09T03:59:13.622Z,6.48
2019-01-09T04:00:14.260Z,6.51
2019-01-09T04:01:14.841Z,6.46
2019-01-09T04:02:15.503Z,6.40
2019-01-09T04:03:16.081Z,6.47
2019-01-09T04:04:16.675Z,6.43
2019-01-09T04:05:17.253Z,6.36
2019-01-09T04:06:17.832Z,6.48
2019-01-09T04:07:18.437Z,6.47
2019-01-09T04:08:19.000Z,6.47
2019-01-09T04:09:19.585Z,6.53
2019-01-09T04:10:20.171Z,6.53
2019-01-09T04:11:20.748Z,6.61
2019-01-09T04:12:21.351Z,6.63
2019-01-09T04:13:21.935Z,6.51
2019-01-09T04:14:22.607Z,6.56
2019-01-09T04:15:23.180Z,6.51
2019-01-09T04:16:23.764Z,6.53
2019-01-09T04:17:24.356Z,6.43
2019-01-09T04:18:24.978Z,6.48
2019-01-09T04:19:25.561Z,6.35
2019-01-09T04:20:26.143Z,6.43
2019-01-09T04:21:26.730Z,6.33
2019-01-09T04:22:27.314Z,6.36
2019-01-09T04:23:27.910Z,6.29
2019-01-09T04:24:28.489Z,6.35
2019-01-09T04:25:29.068Z,6.28
2019-01-09T04:26:29.644Z,6.25
2019-01-09T04:27:30.227Z,6.32
2019-01-09T04:28:30.817Z,6.26
2019-01-09T04:29:31.403Z,6.29
2019-01-09T04:30:31.989Z,6.29
2019-01-09T04:31:32.587Z,6.32
2019-01-09T04:32:33.148Z,6.29
2019-01-09T04:33:33.792Z,6.32
2019-01-09T04:34:34.381Z,6.26
2019-01-09T04:35:34.957Z,6.26
2019-01-09T04:36:37.593Z,6.28
2019-01-09T04:37:38.178Z,6.26
2019-01-09T04:38:38.766Z,6.38
2019-01-09T04:39:39.339Z,6.40
2019-01-09T04:40:39.938Z,6.43
2019-01-09T04:41:40.506Z,6.44
2019-01-09T04:42:41.088Z,6.40
2019-01-09T04:43:41.688Z,6.30
2019-01-09T04:44:42.277Z,6.32
2019-01-09T04:45:42.855Z,6.29
2019-01-09T04:46:43.502Z,6.16
2019-01-09T04:47:44.093Z,6.07
2019-01-09T04:48:44.770Z,6.11
2019-01-09T04:49:45.338Z,6.11
2019-01-09T04:50:45.987Z,6.09
2019-01-09T04:51:46.569Z,6.14
2019-01-09T04:52:47.159Z,6.11
2019-01-09T04:53:47.793Z,6.07
2019-01-09T04:54:48.382Z,6.16
2019-01-09T04:55:49.036Z,6.11
2019-01-09T04:56:49.623Z,6.11
2019-01-09T04:57:51.301Z,6.22
2019-01-09T04:58:51.889Z,6.28
2019-01-09T04:59:52.548Z,6.28
2019-01-09T05:00:53.132Z,6.30
2019-01-09T05:01:53.712Z,6.32
2019-01-09T05:02:54.310Z,6.40
2019-01-09T05:03:54.873Z,6.40
2019-01-09T05:04:55.461Z,6.35
2019-01-09T05:05:57.091Z,6.32
2019-01-09T05:07:00.631Z,6.38
2019-01-09T05:07:58.306Z,6.35
2019-01-09T05:08:58.885Z,6.38
2019-01-09T05:09:59.478Z,6.29
2019-01-09T05:11:00.105Z,6.35
2019-01-09T05:12:00.678Z,6.32
2019-01-09T05:13:01.341Z,6.32
2019-01-09T05:14:01.925Z,6.26
2019-01-09T05:15:02.583Z,6.22
2019-01-09T05:16:03.165Z,6.33
2019-01-09T05:17:03.749Z,6.35
2019-01-09T05:18:05.463Z,6.35
2019-01-09T05:19:05.941Z,6.40
2019-01-09T05:20:06.601Z,6.48
2019-01-09T05:21:07.191Z,6.43
2019-01-09T05:22:07.847Z,6.43
2019-01-09T05:23:08.426Z,6.53
2019-01-09T05:24:09.085Z,6.51
2019-01-09T05:25:09.670Z,6.58
2019-01-09T05:26:10.335Z,6.56
2019-01-09T05:27:10.912Z,6.59
2019-01-09T05:28:11.568Z,6.51
2019-01-09T05:29:12.157Z,6.58
2019-01-09T05:30:12.814Z,6.56
2019-01-09T05:31:13.395Z,6.54
2019-01-09T05:32:14.055Z,6.53
2019-01-09T05:33:14.643Z,6.51
2019-01-09T05:34:15.298Z,6.50
2019-01-09T05:35:15.881Z,6.48
2019-01-09T05:36:16.632Z,6.43
2019-01-09T05:37:17.124Z,6.43
2019-01-09T05:38:17.795Z,6.44
2019-01-09T05:39:18.366Z,6.44
2019-01-09T05:40:19.022Z,6.32
2019-01-09T05:41:19.613Z,6.30
2019-01-09T05:42:20.266Z,6.33
2019-01-09T05:43:20.836Z,6.19
2019-01-09T05:44:21.499Z,6.29
2019-01-09T05:45:22.082Z,6.29
2019-01-09T05:46:22.740Z,6.21
2019-01-09T05:47:23.324Z,6.28
2019-01-09T05:48:23.994Z,6.29
2019-01-09T05:49:24.528Z,6.35
2019-01-09T05:50:25.189Z,6.26
2019-01-09T05:51:25.773Z,6.29
2019-01-09T05:52:26.422Z,6.26
2019-01-09T05:53:27.005Z,6.26
2019-01-09T05:54:27.666Z,6.22
2019-01-09T05:55:28.262Z,6.21
2019-01-09T05:56:28.912Z,6.26
2019-01-09T05:57:29.493Z,6.29
2019-01-09T05:58:30.155Z,6.11
2019-01-09T05:59:31.037Z,6.22
2019-01-09T06:00:31.693Z,6.21
2019-01-09T06:01:32.288Z,6.22
2019-01-09T06:02:32.942Z,6.25
2019-01-09T06:03:33.528Z,6.22
2019-01-09T06:04:34.179Z,6.30
2019-01-09T06:05:34.763Z,6.29
2019-01-09T06:06:35.428Z,6.25
2019-01-09T06:07:36.011Z,6.29
2019-01-09T06:08:43.325Z,6.26
2019-01-09T06:09:43.908Z,6.28
2019-01-09T06:10:44.562Z,6.28
2019-01-09T06:11:45.149Z,6.26
2019-01-09T06:12:45.729Z,6.25
2019-01-09T06:13:46.325Z,6.28
2019-01-09T06:14:46.910Z,6.26
2019-01-09T06:15:47.503Z,6.30
2019-01-09T06:16:48.079Z,6.30
2019-01-09T06:17:48.658Z,6.33
2019-01-09T06:18:49.247Z,6.30
2019-01-09T06:19:49.958Z,6.28
2019-01-09T06:20:50.433Z,6.29
2019-01-09T06:21:51.094Z,6.28
2019-01-09T06:22:51.675Z,6.22
2019-01-09T06:23:52.336Z,6.22
2019-01-09T06:24:52.927Z,6.21
2019-01-09T06:25:53.577Z,6.19
2019-01-09T06:26:54.160Z,6.18
2019-01-09T06:27:54.744Z,6.10
2019-01-09T06:28:55.324Z,6.19
2019-01-09T06:29:55.910Z,6.13
2019-01-09T06:30:56.493Z,6.10
2019-01-09T06:31:57.100Z,6.09
2019-01-09T06:32:57.683Z,6.04
2019-01-09T06:33:58.342Z,6.06
2019-01-09T06:34:58.990Z,6.06
2019-01-09T06:35:59.506Z,6.06
2019-01-09T06:37:00.105Z,6.06
2019-01-09T06:38:00.693Z,6.04
2019-01-09T06:39:02.373Z,6.09
2019-01-09T06:40:02.956Z,6.07
2019-01-09T06:41:03.630Z,6.01
2019-01-09T06:42:04.208Z,6.03
2019-01-09T06:43:05.881Z,6.04
2019-01-09T06:44:06.462Z,6.01
2019-01-09T06:45:07.128Z,6.07
2019-01-09T06:46:07.703Z,5.98
2019-01-09T06:47:08.282Z,6.03
2019-01-09T06:48:08.864Z,5.95
2019-01-09T06:49:09.451Z,5.91
2019-01-09T06:50:10.033Z,5.96
2019-01-09T06:51:10.616Z,6.06
2019-01-09T06:52:11.189Z,6.07
2019-01-09T06:53:11.781Z,6.04
2019-01-09T06:54:12.370Z,6.09
2019-01-09T06:55:12.964Z,6.13
2019-01-09T06:56:13.558Z,6.13
2019-01-09T06:57:14.101Z,6.19
2019-01-09T06:58:14.689Z,6.18
2019-01-09T06:59:15.283Z,6.19
2019-01-09T07:00:15.851Z,6.28
2019-01-09T07:01:16.431Z,6.21
2019-01-09T07:02:17.134Z,6.18
2019-01-09T07:03:17.712Z,6.18
2019-01-09T07:04:18.368Z,6.22
2019-01-09T07:05:18.953Z,6.22
2019-01-09T07:06:19.530Z,6.22
2019-01-09T07:07:20.146Z,6.26
2019-01-09T07:08:20.699Z,6.25
2019-01-09T07:09:21.380Z,6.25
2019-01-09T07:10:21.962Z,6.33
2019-01-09T07:11:22.615Z,6.38
2019-01-09T07:12:23.195Z,6.36
2019-01-09T07:13:23.776Z,6.30
2019-01-09T07:14:24.358Z,6.35
2019-01-09T07:15:24.938Z,6.32
2019-01-09T07:16:25.524Z,6.35
2019-01-09T07:17:26.101Z,6.32
2019-01-09T07:18:26.697Z,6.46
2019-01-09T07:19:27.279Z,6.40
2019-01-09T07:20:27.950Z,6.38
2019-01-09T07:21:28.508Z,6.46
2019-01-09T07:22:29.118Z,6.47
2019-01-09T07:23:29.709Z,6.38
2019-01-09T07:24:30.290Z,6.30
2019-01-09T07:25:30.874Z,6.33
2019-01-09T07:26:31.466Z,6.21
2019-01-09T07:27:32.036Z,6.30
2019-01-09T07:28:32.627Z,6.30
2019-01-09T07:29:33.211Z,6.32
2019-01-09T07:30:33.797Z,6.32
2019-01-09T07:31:34.381Z,6.21
2019-01-09T07:32:34.961Z,6.29
2019-01-09T07:33:35.545Z,6.33
2019-01-09T07:34:36.178Z,6.29
2019-01-09T07:35:36.787Z,6.25
2019-01-09T07:36:37.371Z,6.26
2019-01-09T07:37:44.912Z,6.29
2019-01-09T07:38:38.613Z,6.26
2019-01-09T07:39:39.272Z,6.26
2019-01-09T07:40:39.856Z,6.19
2019-01-09T07:41:40.814Z,6.14
2019-01-09T07:42:41.282Z,6.18
2019-01-09T07:43:41.954Z,6.11
2019-01-09T07:44:42.543Z,6.09
2019-01-09T07:45:43.197Z,6.13
2019-01-09T07:46:43.791Z,6.06
2019-01-09T07:47:44.443Z,6.06
2019-01-09T07:48:45.029Z,6.09
2019-01-09T07:49:45.681Z,6.09
2019-01-09T07:50:46.271Z,5.98
2019-01-09T07:51:46.930Z,5.91
2019-01-09T07:52:47.507Z,5.95
2019-01-09T07:53:48.168Z,5.83
2019-01-09T07:54:48.753Z,5.92
2019-01-09T07:55:49.415Z,5.83
2019-01-09T07:56:49.995Z,5.86
2019-01-09T07:57:50.652Z,5.78
2019-01-09T07:58:51.238Z,5.78
2019-01-09T07:59:51.896Z,5.78
2019-01-09T08:00:52.484Z,5.74
2019-01-09T08:01:53.177Z,5.82
2019-01-09T08:02:53.728Z,5.77
2019-01-09T08:03:54.383Z,5.70
2019-01-09T08:04:54.967Z,5.71
2019-01-09T08:05:55.627Z,5.77
2019-01-09T08:06:56.207Z,5.77
2019-01-09T08:07:56.870Z,5.77
2019-01-09T08:08:57.452Z,5.73
2019-01-09T08:09:58.115Z,5.78
2019-01-09T08:10:58.698Z,5.70
2019-01-09T08:11:59.353Z,5.75
2019-01-09T08:12:59.932Z,5.81
2019-01-09T08:14:00.600Z,5.78
2019-01-09T08:15:01.184Z,5.86
2019-01-09T08:16:01.839Z,5.88
2019-01-09T08:17:02.427Z,5.91
2019-01-09T08:18:03.093Z,6.01
2019-01-09T08:19:03.670Z,6.07
2019-01-09T08:20:04.338Z,6.06
2019-01-09T08:21:05.620Z,6.10
2019-01-09T08:22:06.703Z,6.21
2019-01-09T08:23:07.341Z,6.32
2019-01-09T08:24:07.986Z,6.18
2019-01-09T08:25:08.635Z,6.38
2019-01-09T08:26:09.308Z,6.40
2019-01-09T08:27:09.931Z,6.53
2019-01-09T08:28:10.638Z,6.50
2019-01-09T08:29:11.291Z,6.50
2019-01-09T08:30:11.905Z,6.54
2019-01-09T08:31:12.546Z,6.56
2019-01-09T08:32:13.223Z,6.51
2019-01-09T08:33:13.858Z,6.51
2019-01-09T08:34:14.487Z,6.62
2019-01-09T08:35:15.130Z,6.56
2019-01-09T08:36:15.811Z,6.59
2019-01-09T08:37:16.443Z,6.65
2019-01-09T08:38:17.075Z,6.62
2019-01-09T08:39:17.737Z,6.58
2019-01-09T08:40:18.365Z,6.63
2019-01-09T08:41:19.017Z,6.66
2019-01-09T08:42:19.709Z,6.56
2019-01-09T08:43:20.359Z,6.59
2019-01-09T08:44:20.999Z,6.61
2019-01-09T08:45:21.630Z,6.61
2019-01-09T08:46:22.327Z,6.59
2019-01-09T08:47:22.962Z,6.63
2019-01-09T08:48:23.597Z,6.72
2019-01-09T08:49:24.236Z,6.76
2019-01-09T08:50:24.914Z,6.80
2019-01-09T08:51:25.557Z,6.81
2019-01-09T08:52:26.189Z,6.90
2019-01-09T08:53:26.827Z,6.91
2019-01-09T08:54:27.463Z,6.94
2019-01-09T08:55:28.088Z,6.90
2019-01-09T08:56:28.729Z,6.90
2019-01-09T08:57:29.371Z,6.91
2019-01-09T08:58:30.008Z,6.94
2019-01-09T08:59:30.646Z,6.94
2019-01-09T09:00:31.340Z,7.04
2019-01-09T09:01:31.984Z,7.05
2019-01-09T09:02:32.683Z,7.05
2019-01-09T09:03:33.315Z,7.12
2019-01-09T09:04:33.976Z,7.12
2019-01-09T09:05:34.613Z,7.15
2019-01-09T09:06:35.294Z,7.19
2019-01-09T09:07:35.994Z,7.17
2019-01-09T09:08:36.632Z,7.22
2019-01-09T09:09:37.347Z,7.31
2019-01-09T09:10:37.997Z,7.26
2019-01-09T09:11:39.713Z,7.26
2019-01-09T09:12:40.337Z,7.40
2019-01-09T09:13:41.052Z,7.42
2019-01-09T09:14:41.681Z,7.47
2019-01-09T09:15:42.323Z,7.49
2019-01-09T09:16:42.962Z,7.58
2019-01-09T09:17:43.605Z,7.59
2019-01-09T09:18:44.238Z,7.56
2019-01-09T09:19:44.885Z,7.71
2019-01-09T09:20:45.597Z,7.78
2019-01-09T09:21:46.240Z,7.78
2019-01-09T09:22:46.877Z,7.77
2019-01-09T09:23:47.527Z,7.89
2019-01-09T09:24:48.147Z,7.85
2019-01-09T09:25:48.812Z,7.97
2019-01-09T09:26:49.446Z,8.07
2019-01-09T09:27:52.148Z,8.15
2019-01-09T09:28:53.038Z,8.08
2019-01-09T09:29:53.463Z,8.08
2019-01-09T09:30:54.086Z,8.11
2019-01-09T09:31:54.836Z,8.11
2019-01-09T09:32:55.443Z,7.97
2019-01-09T09:33:56.153Z,8.00
2019-01-09T09:34:56.778Z,7.90
2019-01-09T09:35:57.480Z,7.97
2019-01-09T09:36:58.409Z,7.97
2019-01-09T09:37:59.143Z,7.97
2019-01-09T09:38:59.773Z,7.94
2019-01-09T09:40:00.433Z,7.87
2019-01-09T09:41:01.056Z,7.93
2019-01-09T09:42:01.722Z,8.04
2019-01-09T09:43:02.364Z,7.96
2019-01-09T09:44:03.065Z,7.99
2019-01-09T09:45:03.708Z,8.04
2019-01-09T09:46:04.407Z,8.08
2019-01-09T09:47:05.058Z,8.25
2019-01-09T09:48:05.760Z,8.21
2019-01-09T09:49:06.413Z,8.30
2019-01-09T09:50:07.098Z,8.42
2019-01-09T09:51:07.742Z,8.58
2019-01-09T09:52:08.456Z,8.57
2019-01-09T09:53:09.102Z,8.66
2019-01-09T09:54:09.787Z,8.90
2019-01-09T09:55:13.029Z,8.97
2019-01-09T09:56:12.172Z,8.93
2019-01-09T09:57:12.808Z,8.96
2019-01-09T09:58:13.511Z,8.86
2019-01-09T09:59:14.161Z,8.83
2019-01-09T10:00:14.856Z,8.93
2019-01-09T10:01:15.492Z,8.93
2019-01-09T10:02:16.194Z,8.97
2019-01-09T10:03:16.829Z,9.04
2019-01-09T10:04:17.545Z,9.02
2019-01-09T10:05:18.452Z,8.97
2019-01-09T10:06:18.893Z,8.97
2019-01-09T10:07:19.527Z,9.04
2019-01-09T10:08:29.046Z,9.01
2019-01-09T10:09:20.875Z,9.13
2019-01-09T10:10:21.572Z,9.28
2019-01-09T10:11:22.217Z,9.28
2019-01-09T10:12:22.933Z,9.23
2019-01-09T10:13:23.558Z,9.18
2019-01-09T10:14:24.266Z,9.25
2019-01-09T10:15:24.901Z,9.39
2019-01-09T10:16:25.541Z,9.45
2019-01-09T10:17:26.178Z,9.45
2019-01-09T10:18:26.816Z,9.52
2019-01-09T10:19:27.487Z,9.66
2019-01-09T10:20:28.085Z,9.73
2019-01-09T10:21:28.728Z,9.76
2019-01-09T10:22:29.369Z,9.93
2019-01-09T10:23:30.006Z,9.83
2019-01-09T10:24:30.686Z,9.75
2019-01-09T10:25:31.323Z,9.61
2019-01-09T10:26:31.958Z,9.64
2019-01-09T10:27:32.603Z,9.66
2019-01-09T10:28:33.274Z,9.73
2019-01-09T10:29:33.909Z,9.75
2019-01-09T10:30:34.548Z,9.71
2019-01-09T10:31:35.188Z,9.68
2019-01-09T10:32:35.832Z,9.78
2019-01-09T10:33:36.455Z,9.93
2019-01-09T10:34:37.100Z,9.91
2019-01-09T10:35:37.744Z,10.00
2019-01-09T10:38:06.011Z,9.75
2019-01-09T11:16:08.393Z,9.24
2019-01-09T11:17:09.036Z,9.61
2019-01-09T11:20:04.383Z,9.53
2019-01-09T11:21:05.122Z,9.49
2019-01-09T11:23:59.329Z,9.35
2019-01-09T11:25:01.546Z,9.30
2019-01-09T11:27:54.310Z,9.04
2019-01-09T11:28:55.957Z,8.90
2019-01-09T11:31:57.341Z,8.88
2019-01-09T11:32:58.011Z,8.96
2019-01-09T11:33:58.627Z,8.72
2019-01-09T11:34:59.274Z,9.01
2019-01-09T11:35:59.899Z,8.96
2019-01-09T11:37:00.638Z,8.97
2019-01-09T11:38:01.272Z,8.83
2019-01-09T11:39:04.014Z,8.66
2019-01-09T11:40:04.645Z,8.69
2019-01-09T11:41:05.358Z,8.62
2019-01-09T11:42:05.991Z,8.55
2019-01-09T11:43:06.638Z,8.50
2019-01-09T11:44:07.326Z,8.37
2019-01-09T11:45:07.960Z,8.83
2019-01-09T11:46:08.601Z,9.46
2019-01-09T11:47:09.365Z,9.81
2019-01-09T11:48:09.941Z,9.81
2019-01-09T11:49:10.633Z,9.73
2019-01-09T11:50:11.265Z,9.67
2019-01-09T11:51:11.914Z,9.56
2019-01-09T11:52:12.550Z,9.38
2019-01-09T11:53:13.276Z,9.24
2019-01-09T11:54:13.929Z,9.39
2019-01-09T11:55:14.622Z,9.79
2019-01-09T11:56:15.254Z,10.00
2019-01-09T11:57:15.902Z,10.09
2019-01-09T11:58:16.531Z,10.46
2019-01-09T11:59:17.165Z,11.36
2019-01-09T12:00:17.829Z,12.20
2019-01-09T12:01:18.462Z,12.69
2019-01-09T12:02:22.281Z,12.85
2019-01-09T12:03:19.837Z,12.59
2019-01-09T12:04:20.468Z,12.20
2019-01-09T12:05:21.109Z,11.70
2019-01-09T12:06:21.754Z,11.67
2019-01-09T12:07:22.487Z,11.71
2019-01-09T12:08:23.121Z,11.29
2019-01-09T12:09:23.830Z,10.95
2019-01-09T12:10:29.809Z,11.03
2019-01-09T12:11:25.176Z,10.91
2019-01-09T12:12:25.819Z,10.80
2019-01-09T12:13:27.547Z,10.56
2019-01-09T12:14:28.183Z,10.96
2019-01-09T12:15:28.824Z,10.95
2019-01-09T12:16:29.514Z,10.77
2019-01-09T12:17:30.150Z,10.99
2019-01-09T12:18:30.790Z,11.50
2019-01-09T12:19:31.430Z,11.47
2019-01-09T12:20:32.079Z,11.36
2019-01-09T12:21:34.771Z,11.36
2019-01-09T12:22:35.413Z,10.99
2019-01-09T12:23:36.057Z,10.91
2019-01-09T12:24:36.688Z,10.73
2019-01-09T12:25:37.365Z,10.70
2019-01-09T12:26:38.073Z,10.95
2019-01-09T12:27:38.639Z,11.01
2019-01-09T12:28:39.281Z,11.06
2019-01-09T12:29:41.007Z,10.91
2019-01-09T12:30:41.651Z,10.73
2019-01-09T12:31:43.377Z,10.46
2019-01-09T12:32:44.020Z,10.26
2019-01-09T12:33:44.677Z,10.25
2019-01-09T12:34:45.325Z,10.26
2019-01-09T12:35:46.033Z,10.10
2019-01-09T12:36:46.671Z,10.04
2019-01-09T12:37:47.382Z,10.06
2019-01-09T12:38:48.009Z,10.00
2019-01-09T12:39:48.718Z,9.89
2019-01-09T12:40:49.361Z,9.76
2019-01-09T12:41:50.067Z,9.73
2019-01-09T12:42:50.708Z,9.75
2019-01-09T12:43:52.435Z,9.81
2019-01-09T12:44:53.073Z,9.96
2019-01-09T12:45:53.780Z,9.89
2019-01-09T12:46:54.427Z,9.64
2019-01-09T12:47:55.047Z,9.50
2019-01-09T12:48:55.737Z,9.35
2019-01-09T12:49:56.377Z,9.18
2019-01-09T12:50:57.117Z,9.16
2019-01-09T12:51:57.695Z,9.16
2019-01-09T12:52:58.403Z,9.15
2019-01-09T12:53:59.042Z,9.18
2019-01-09T12:54:59.682Z,9.04
2019-01-09T12:56:00.363Z,9.02
2019-01-09T12:57:01.001Z,9.02
2019-01-09T12:58:01.705Z,8.96
2019-01-09T12:59:02.344Z,8.94
2019-01-09T13:00:03.058Z,8.83
2019-01-09T13:01:03.691Z,8.91
2019-01-09T13:02:04.397Z,8.99
2019-01-09T13:03:05.034Z,9.30
2019-01-09T13:04:07.572Z,9.64
2019-01-09T13:05:06.380Z,10.25
2019-01-09T13:06:07.088Z,10.78
2019-01-09T13:07:07.722Z,11.10
2019-01-09T13:08:08.433Z,11.49
2019-01-09T13:09:09.071Z,11.61
2019-01-09T13:10:09.777Z,11.67
2019-01-09T13:11:10.422Z,11.82
2019-01-09T13:12:11.120Z,11.77
2019-01-09T13:13:11.768Z,11.89
2019-01-09T13:14:12.465Z,12.01
2019-01-09T13:15:13.103Z,11.89
2019-01-09T13:16:13.813Z,11.80
2019-01-09T13:17:14.450Z,11.53
2019-01-09T13:18:15.090Z,11.17
2019-01-09T13:19:15.732Z,10.88
2019-01-09T13:20:16.373Z,10.60
2019-01-09T13:21:17.137Z,10.26
2019-01-09T13:22:17.760Z,10.12
2019-01-09T13:23:18.404Z,10.07
2019-01-09T13:24:19.041Z,9.97
2019-01-09T13:25:19.684Z,9.82
2019-01-09T13:26:20.319Z,9.96
2019-01-09T13:27:21.065Z,9.94
2019-01-09T13:28:21.699Z,9.83
2019-01-09T13:29:22.342Z,9.73
2019-01-09T13:30:23.022Z,9.53
2019-01-09T13:31:23.662Z,9.52
2019-01-09T13:32:24.295Z,9.50
2019-01-09T13:33:24.999Z,9.49
2019-01-09T13:34:25.636Z,9.35
2019-01-09T13:35:26.279Z,9.40
2019-01-09T13:36:26.943Z,9.28
2019-01-09T13:37:27.586Z,9.25
2019-01-09T13:38:28.290Z,9.13
2019-01-09T13:39:30.887Z,9.15
2019-01-09T13:40:29.636Z,9.15
2019-01-09T13:41:30.273Z,9.01
2019-01-09T13:42:30.979Z,8.99
2019-01-09T13:43:31.622Z,8.97
2019-01-09T13:44:32.329Z,8.94
2019-01-09T13:45:32.959Z,8.90
2019-01-09T13:46:33.667Z,8.69
2019-01-09T13:47:34.310Z,8.55
2019-01-09T13:48:35.008Z,8.51
2019-01-09T13:49:35.649Z,8.48
2019-01-09T13:50:36.361Z,8.42
2019-01-09T13:51:36.995Z,8.44
2019-01-09T13:52:37.712Z,8.47
2019-01-09T13:53:38.353Z,8.53
2019-01-09T13:54:39.050Z,8.54
2019-01-09T13:55:39.684Z,8.53
2019-01-09T13:56:40.394Z,8.35
2019-01-09T13:57:41.033Z,8.42
2019-01-09T13:58:41.740Z,8.44
2019-01-09T13:59:42.374Z,8.53
2019-01-09T14:00:44.108Z,8.58
2019-01-09T14:01:44.745Z,8.72
2019-01-09T14:02:45.453Z,8.81
2019-01-09T14:03:46.086Z,9.06
2019-01-09T14:04:46.801Z,8.99
2019-01-09T14:05:47.432Z,8.93
2019-01-09T14:06:48.141Z,8.91
2019-01-09T14:07:48.779Z,8.79
2019-01-09T14:08:49.499Z,8.81
2019-01-09T14:09:50.139Z,9.18
2019-01-09T14:10:50.834Z,9.21
2019-01-09T14:11:51.477Z,9.01